createdAt,value
2023-12-19T00:00:58.437Z,15.80
2023-12-19T00:03:25.232Z,13.65
2023-12-19T00:05:52.187Z,14.00
2023-12-19T00:08:20.263Z,14.75
2023-12-19T00:10:47.082Z,13.50
2023-12-19T00:13:14.103Z,15.82
2023-12-19T00:15:41.112Z,14.38
2023-12-19T00:18:07.958Z,17.40
2023-12-19T00:20:34.714Z,16.23
2023-12-19T00:23:01.485Z,15.88
2023-12-19T00:25:31.080Z,11.52
2023-12-19T00:28:00.100Z,12.98
2023-12-19T00:30:27.929Z,14.40
2023-12-19T00:32:54.712Z,16.30
2023-12-19T00:35:21.456Z,14.65
2023-12-19T00:37:48.286Z,14.30
2023-12-19T00:40:15.105Z,14.23
2023-12-19T00:42:43.493Z,11.80
2023-12-19T00:45:11.134Z,12.68
2023-12-19T00:47:39.747Z,16.77
2023-12-19T00:50:09.071Z,17.50
2023-12-19T00:52:36.104Z,15.23
2023-12-19T00:55:03.557Z,15.48
2023-12-19T00:57:30.327Z,17.30
2023-12-19T00:59:57.209Z,16.38
2023-12-19T01:02:24.588Z,15.88
2023-12-19T01:04:51.619Z,17.02
2023-12-19T01:07:18.356Z,15.88
2023-12-19T01:09:45.125Z,12.60
2023-12-19T01:12:11.994Z,13.95
2023-12-19T01:14:38.690Z,13.15
2023-12-19T01:17:05.597Z,13.88
2023-12-19T01:19:32.422Z,15.32
2023-12-19T01:21:59.944Z,16.17
2023-12-19T01:24:26.729Z,12.52
2023-12-19T01:26:53.657Z,16.90
2023-12-19T01:29:20.370Z,15.57
2023-12-19T01:31:47.194Z,14.60
2023-12-19T01:34:14.333Z,13.95
2023-12-19T01:36:42.687Z,18.08
2023-12-19T01:39:22.965Z,16.33
2023-12-19T01:41:49.654Z,14.82
2023-12-19T01:44:20.163Z,16.80
2023-12-19T01:46:50.033Z,13.98
2023-12-19T01:49:16.882Z,13.68
2023-12-19T01:51:43.932Z,14.18
2023-12-19T01:54:11.647Z,16.17
2023-12-19T01:56:38.826Z,16.88
2023-12-19T01:59:09.170Z,16.95
2023-12-19T02:01:36.788Z,16.70
2023-12-19T02:04:04.212Z,15.93
2023-12-19T02:06:35.462Z,11.77
2023-12-19T02:09:03.455Z,14.57
2023-12-19T02:11:30.885Z,15.75
2023-12-19T02:13:59.322Z,14.02
2023-12-19T02:16:27.446Z,16.70
2023-12-19T02:19:05.237Z,13.57
2023-12-19T02:21:32.579Z,16.48
2023-12-19T02:23:59.963Z,11.40
2023-12-19T02:26:27.266Z,14.90
2023-12-19T02:28:54.460Z,15.15
2023-12-19T02:31:21.603Z,16.45
2023-12-19T02:33:48.674Z,16.45
2023-12-19T02:36:17.255Z,14.63
2023-12-19T02:38:44.171Z,15.13
2023-12-19T02:41:11.541Z,13.38
2023-12-19T02:43:53.094Z,15.18
2023-12-19T02:46:22.122Z,14.57
2023-12-19T02:48:48.911Z,11.75
2023-12-19T02:51:17.850Z,15.40
2023-12-19T02:53:44.508Z,15.57
2023-12-19T02:56:11.162Z,15.45
2023-12-19T02:58:37.817Z,13.70
2023-12-19T03:01:07.741Z,14.82
2023-12-19T03:03:34.550Z,12.80
2023-12-19T03:06:01.895Z,14.93
2023-12-19T03:08:28.675Z,15.98
2023-12-19T03:10:55.620Z,13.60
2023-12-19T03:13:22.324Z,14.27
2023-12-19T03:15:49.123Z,15.52
2023-12-19T03:18:16.038Z,13.63
2023-12-19T03:20:44.896Z,15.02
2023-12-19T03:23:11.589Z,9.93
2023-12-19T03:25:38.314Z,15.43
2023-12-19T03:28:05.172Z,14.50
2023-12-19T03:30:32.278Z,13.85
2023-12-19T03:32:59.171Z,13.82
2023-12-19T03:35:26.197Z,14.35
2023-12-19T03:37:53.051Z,14.32
2023-12-19T03:40:19.739Z,15.52
2023-12-19T03:42:47.018Z,13.60
2023-12-19T03:45:14.870Z,16.45
2023-12-19T03:47:41.741Z,14.95
2023-12-19T03:50:09.397Z,16.00
2023-12-19T03:52:36.778Z,16.50
2023-12-19T03:55:04.845Z,14.45
2023-12-19T03:57:31.698Z,12.48
2023-12-19T03:59:58.388Z,13.25
2023-12-19T04:02:25.084Z,14.57
2023-12-19T04:04:51.805Z,12.38
2023-12-19T04:07:18.624Z,12.73
2023-12-19T04:09:45.530Z,14.45
2023-12-19T04:12:13.868Z,11.68
2023-12-19T04:14:40.500Z,12.20
2023-12-19T04:17:07.288Z,11.48
2023-12-19T04:19:34.077Z,12.63
2023-12-19T04:22:00.983Z,10.65
2023-12-19T04:24:28.248Z,11.35
2023-12-19T04:26:55.383Z,10.48
2023-12-19T04:29:22.131Z,13.40
2023-12-19T04:31:49.008Z,12.45
2023-12-19T04:34:15.975Z,10.60
2023-12-19T04:36:43.003Z,14.25
2023-12-19T04:39:09.711Z,14.13
2023-12-19T04:41:36.754Z,13.57
2023-12-19T04:44:03.704Z,11.63
2023-12-19T04:46:30.419Z,12.40
2023-12-19T04:48:57.479Z,9.65
2023-12-19T04:51:24.435Z,11.82
2023-12-19T04:53:51.461Z,13.05
2023-12-19T04:56:18.403Z,10.45
2023-12-19T04:58:47.253Z,10.02
2023-12-19T05:01:14.230Z,9.32
2023-12-19T05:03:43.384Z,9.25
2023-12-19T05:06:11.295Z,8.73
2023-12-19T05:08:38.136Z,11.30
2023-12-19T05:11:06.011Z,9.18
2023-12-19T05:13:32.643Z,10.80
2023-12-19T05:15:59.579Z,9.85
2023-12-19T05:18:26.475Z,8.05
2023-12-19T05:20:53.199Z,8.90
2023-12-19T05:23:19.999Z,9.10
2023-12-19T05:25:46.863Z,10.27
2023-12-19T05:28:13.569Z,10.18
2023-12-19T05:30:40.360Z,11.15
2023-12-19T05:33:07.494Z,11.43
2023-12-19T05:35:34.206Z,11.73
2023-12-19T05:38:01.183Z,10.05
2023-12-19T05:40:28.144Z,10.93
2023-12-19T05:42:57.892Z,10.85
2023-12-19T05:45:25.187Z,11.25
2023-12-19T05:47:51.953Z,12.07
2023-12-19T05:50:18.726Z,11.77
2023-12-19T05:52:45.734Z,12.40
2023-12-19T05:55:12.560Z,9.68
2023-12-19T05:57:40.809Z,10.60
2023-12-19T06:00:10.552Z,9.40
2023-12-19T06:02:37.707Z,11.35
2023-12-19T06:05:08.393Z,7.97
2023-12-19T06:07:38.915Z,9.95
2023-12-19T06:10:15.459Z,9.13
2023-12-19T06:12:42.921Z,9.98
2023-12-19T06:15:14.267Z,10.52
2023-12-19T06:17:44.732Z,7.45
2023-12-19T06:20:11.798Z,6.57
2023-12-19T06:22:45.791Z,10.23
2023-12-19T06:25:12.817Z,9.70
2023-12-19T06:27:41.234Z,9.77
2023-12-19T06:30:18.630Z,9.48
2023-12-19T06:32:50.407Z,11.02
2023-12-19T06:35:17.672Z,10.00
2023-12-19T06:37:45.850Z,11.00
2023-12-19T06:40:13.052Z,9.90
2023-12-19T06:42:40.111Z,7.72
2023-12-19T06:45:07.590Z,10.07
2023-12-19T06:47:36.909Z,9.35
2023-12-19T06:50:05.063Z,6.47
2023-12-19T06:52:32.111Z,10.18
2023-12-19T06:54:59.029Z,10.02
2023-12-19T06:57:26.455Z,9.90
2023-12-19T06:59:53.173Z,11.25
2023-12-19T07:02:19.781Z,10.95
2023-12-19T07:04:46.454Z,9.25
2023-12-19T07:07:13.128Z,8.80
2023-12-19T07:09:39.964Z,10.60
2023-12-19T07:12:06.911Z,11.57
2023-12-19T07:14:34.091Z,10.30
2023-12-19T07:17:00.758Z,11.90
2023-12-19T07:19:27.750Z,9.30
2023-12-19T07:21:54.641Z,10.68
2023-12-19T07:24:21.354Z,12.48
2023-12-19T07:26:48.089Z,10.15
2023-12-19T07:29:14.760Z,11.55
2023-12-19T07:31:41.682Z,10.63
2023-12-19T07:34:08.891Z,9.85
2023-12-19T07:36:36.202Z,10.40
2023-12-19T07:39:04.870Z,12.70
2023-12-19T07:41:32.669Z,12.55
2023-12-19T07:43:59.967Z,12.50
2023-12-19T07:46:27.510Z,8.95
2023-12-19T07:48:54.942Z,12.15
2023-12-19T07:51:25.861Z,13.45
2023-12-19T07:53:55.607Z,13.15
2023-12-19T07:56:22.380Z,12.50
2023-12-19T07:58:49.053Z,11.10
2023-12-19T08:01:15.969Z,12.98
2023-12-19T08:03:44.861Z,12.45
2023-12-19T08:06:12.406Z,12.30
2023-12-19T08:08:39.233Z,11.65
2023-12-19T08:11:06.933Z,12.43
2023-12-19T08:13:35.475Z,10.25
2023-12-19T08:16:03.017Z,11.10
2023-12-19T08:18:29.892Z,12.50
2023-12-19T08:20:57.141Z,12.77
2023-12-19T08:23:23.889Z,13.38
2023-12-19T08:25:50.545Z,11.18
2023-12-19T08:28:17.225Z,10.82
2023-12-19T08:30:44.407Z,12.18
2023-12-19T08:33:11.314Z,9.25
2023-12-19T08:35:38.233Z,6.50
2023-12-19T08:38:04.947Z,12.38
2023-12-19T08:40:31.649Z,13.02
2023-12-19T08:42:58.990Z,10.27
2023-12-19T08:45:27.744Z,9.23
2023-12-19T08:47:55.976Z,11.63
2023-12-19T08:50:23.105Z,9.25
2023-12-19T08:52:51.050Z,9.02
2023-12-19T08:55:17.871Z,10.68
2023-12-19T08:57:46.487Z,8.98
2023-12-19T09:00:18.451Z,11.30
2023-12-19T09:02:46.286Z,9.40
2023-12-19T09:05:14.814Z,8.80
2023-12-19T09:07:42.897Z,9.70
2023-12-19T09:10:11.554Z,12.70
2023-12-19T09:12:38.415Z,12.48
2023-12-19T09:15:07.271Z,10.63
2023-12-19T09:17:34.827Z,13.38
2023-12-19T09:20:05.872Z,9.38
2023-12-19T09:22:33.302Z,11.60
2023-12-19T09:24:59.996Z,8.85
2023-12-19T09:27:27.629Z,9.10
2023-12-19T09:29:54.704Z,8.73
2023-12-19T09:32:23.088Z,9.45
2023-12-19T09:34:51.047Z,9.63
2023-12-19T09:37:18.274Z,10.73
2023-12-19T09:39:47.537Z,9.55
2023-12-19T09:42:18.514Z,8.70
2023-12-19T09:44:45.549Z,9.57
2023-12-19T09:47:16.216Z,8.80
2023-12-19T09:49:44.878Z,7.75
2023-12-19T09:52:13.487Z,7.82
2023-12-19T09:54:41.678Z,8.73
2023-12-19T09:57:09.405Z,9.02
2023-12-19T09:59:40.957Z,9.15
2023-12-19T10:02:09.948Z,6.97
2023-12-19T10:04:36.782Z,6.18
2023-12-19T10:07:03.827Z,7.95
2023-12-19T10:09:30.911Z,7.75
2023-12-19T10:12:32.755Z,7.95
2023-12-19T10:15:16.160Z,6.85
2023-12-19T10:18:09.105Z,4.90
2023-12-19T10:20:38.410Z,5.40
2023-12-19T10:23:07.319Z,7.57
2023-12-19T10:25:42.742Z,5.72
2023-12-19T10:28:13.808Z,6.57
2023-12-19T10:30:40.894Z,7.07
2023-12-19T10:33:08.403Z,5.70
2023-12-19T10:35:41.806Z,6.60
2023-12-19T10:38:10.073Z,4.55
2023-12-19T10:40:38.061Z,5.63
2023-12-19T10:43:05.362Z,6.82
2023-12-19T10:45:33.008Z,7.00
2023-12-19T10:48:00.057Z,5.85
2023-12-19T10:50:28.705Z,7.38
2023-12-19T10:53:01.460Z,6.65
2023-12-19T10:55:37.760Z,7.82
2023-12-19T10:58:06.228Z,7.25
2023-12-19T11:00:38.515Z,5.97
2023-12-19T11:03:14.838Z,5.78
2023-12-19T11:05:43.330Z,6.55
2023-12-19T11:08:15.106Z,5.55
2023-12-19T11:10:42.525Z,5.38
2023-12-19T11:13:11.589Z,5.95
2023-12-19T11:15:44.691Z,4.55
2023-12-19T11:18:44.942Z,5.78
2023-12-19T11:21:21.732Z,5.57
2023-12-19T11:24:08.860Z,6.32
2023-12-19T11:26:42.116Z,5.35
2023-12-19T11:29:08.815Z,6.40
2023-12-19T11:31:38.004Z,5.63
2023-12-19T11:34:24.667Z,5.18
2023-12-19T11:37:10.192Z,5.30
2023-12-19T11:39:43.400Z,4.93
2023-12-19T11:42:11.035Z,5.00
2023-12-19T11:44:38.892Z,5.65
2023-12-19T11:47:22.197Z,5.47
2023-12-19T11:49:49.116Z,4.45
2023-12-19T11:52:38.587Z,4.97
2023-12-19T11:55:07.139Z,3.08
2023-12-19T11:57:34.707Z,5.38
2023-12-19T12:00:02.445Z,4.65
2023-12-19T12:02:33.636Z,4.68
2023-12-19T12:05:18.729Z,4.07
2023-12-19T12:07:52.467Z,4.32
2023-12-19T12:10:22.981Z,3.80
2023-12-19T12:12:51.552Z,4.85
2023-12-19T12:15:23.296Z,3.75
2023-12-19T12:17:50.945Z,4.53
2023-12-19T12:20:25.436Z,4.25
2023-12-19T12:25:23.270Z,3.25
2023-12-19T12:28:00.652Z,1.83
2023-12-19T12:30:32.389Z,3.85
2023-12-19T12:32:59.493Z,3.17
2023-12-19T12:35:32.014Z,3.10
2023-12-19T12:38:18.137Z,4.05
2023-12-19T12:41:11.477Z,3.38
2023-12-19T12:43:51.287Z,3.22
2023-12-19T12:46:22.915Z,2.63
2023-12-19T12:48:52.799Z,3.25
2023-12-19T12:51:23.473Z,3.03
2023-12-19T12:54:01.257Z,2.50
2023-12-19T12:56:33.966Z,3.03
2023-12-19T12:59:03.288Z,2.42
2023-12-19T13:01:31.240Z,2.92
2023-12-19T13:03:59.032Z,2.75
2023-12-19T13:06:29.614Z,2.72
2023-12-19T13:08:56.745Z,2.35
2023-12-19T13:11:24.117Z,2.53
2023-12-19T13:13:51.141Z,2.80
2023-12-19T13:16:18.080Z,3.15
2023-12-19T13:18:49.077Z,2.80
2023-12-19T13:21:16.004Z,2.03
2023-12-19T13:23:42.827Z,2.50
2023-12-19T13:26:09.910Z,2.10
2023-12-19T13:28:37.319Z,3.35
2023-12-19T13:31:05.400Z,2.58
2023-12-19T13:33:32.518Z,2.35
2023-12-19T13:35:59.412Z,2.30
2023-12-19T13:38:26.399Z,2.50
2023-12-19T13:40:53.294Z,2.85
2023-12-19T13:43:20.110Z,2.95
2023-12-19T13:45:47.315Z,2.75
2023-12-19T13:48:15.887Z,2.10
2023-12-19T13:50:42.886Z,3.05
2023-12-19T13:53:10.206Z,2.78
2023-12-19T13:55:36.958Z,2.35
2023-12-19T13:58:05.045Z,2.83
2023-12-19T14:00:33.217Z,3.20
2023-12-19T14:03:01.075Z,2.83
2023-12-19T14:05:29.279Z,3.45
2023-12-19T14:07:57.439Z,3.50
2023-12-19T14:10:25.321Z,2.83
2023-12-19T14:12:52.379Z,3.00
2023-12-19T14:15:20.482Z,3.00
2023-12-19T14:17:47.778Z,2.95
2023-12-19T14:20:15.381Z,3.83
2023-12-19T14:22:42.508Z,2.92
2023-12-19T14:25:10.895Z,1.55
2023-12-19T14:27:38.631Z,2.00
2023-12-19T14:30:07.910Z,3.00
2023-12-19T14:32:35.433Z,2.30
2023-12-19T14:35:02.850Z,1.80
2023-12-19T14:37:29.561Z,2.95
2023-12-19T14:39:57.698Z,2.30
2023-12-19T14:42:25.883Z,3.00
2023-12-19T14:44:53.771Z,2.13
2023-12-19T14:47:20.531Z,2.90
2023-12-19T14:49:47.445Z,2.20
2023-12-19T14:52:14.303Z,2.25
2023-12-19T14:54:43.084Z,2.75
2023-12-19T14:57:10.396Z,2.80
2023-12-19T14:59:37.885Z,2.50
2023-12-19T15:02:05.235Z,2.58
2023-12-19T15:04:33.849Z,2.92
2023-12-19T15:07:01.479Z,1.67
2023-12-19T15:09:28.554Z,2.97
2023-12-19T15:14:23.381Z,3.13
2023-12-19T15:16:50.046Z,2.92
2023-12-19T15:19:17.034Z,2.85
2023-12-19T15:21:43.985Z,2.72
2023-12-19T15:24:10.679Z,2.75
2023-12-19T15:26:41.061Z,3.10
2023-12-19T15:29:09.562Z,3.22
2023-12-19T15:31:45.671Z,3.50
2023-12-19T15:34:13.108Z,3.42
2023-12-19T15:36:40.354Z,3.22
2023-12-19T15:39:07.981Z,3.58
2023-12-19T15:41:35.159Z,3.20
2023-12-19T15:44:08.518Z,3.58
2023-12-19T15:46:41.272Z,3.92
2023-12-19T15:49:13.819Z,3.58
2023-12-19T15:51:41.591Z,3.42
2023-12-19T15:54:08.576Z,3.47
2023-12-19T15:56:36.167Z,3.90
2023-12-19T15:59:05.162Z,3.90
2023-12-19T16:01:32.729Z,3.70
2023-12-19T16:04:00.043Z,4.03
2023-12-19T16:06:27.337Z,3.95
2023-12-19T16:08:54.869Z,4.28
2023-12-19T16:11:24.844Z,4.78
2023-12-19T16:13:53.345Z,4.63
2023-12-19T16:16:21.230Z,4.90
2023-12-19T16:18:49.373Z,4.97
2023-12-19T16:21:22.225Z,5.38
2023-12-19T16:23:58.146Z,5.80
2023-12-19T16:26:31.826Z,6.72
2023-12-19T16:28:58.764Z,6.07
2023-12-19T16:31:26.787Z,6.20
2023-12-19T16:33:53.996Z,6.20
2023-12-19T16:36:20.802Z,6.40
2023-12-19T16:38:48.993Z,6.47
2023-12-19T16:41:17.273Z,5.93
2023-12-19T16:43:45.818Z,6.13
2023-12-19T16:46:12.956Z,6.22
2023-12-19T16:48:40.202Z,6.53
2023-12-19T16:51:08.784Z,6.75
2023-12-19T16:53:36.041Z,6.43
2023-12-19T16:56:03.393Z,6.93
2023-12-19T16:58:39.791Z,7.10
2023-12-19T17:01:13.584Z,5.95
2023-12-19T17:03:41.917Z,6.97
2023-12-19T17:06:09.194Z,7.43
2023-12-19T17:08:36.049Z,7.53
2023-12-19T17:11:02.812Z,7.22
2023-12-19T17:13:29.678Z,7.47
2023-12-19T17:15:56.536Z,7.07
2023-12-19T17:18:23.463Z,7.55
2023-12-19T17:20:50.571Z,7.43
2023-12-19T17:23:18.236Z,7.40
2023-12-19T17:25:45.721Z,7.63
2023-12-19T17:28:12.561Z,7.78
2023-12-19T17:30:39.427Z,8.68
2023-12-19T17:33:06.386Z,9.23
2023-12-19T17:35:33.094Z,9.50
2023-12-19T17:37:59.831Z,8.35
2023-12-19T17:40:26.610Z,17.65
2023-12-19T17:42:53.602Z,9.48
2023-12-19T17:45:20.420Z,8.63
2023-12-19T17:47:47.170Z,8.20
2023-12-19T17:50:14.072Z,6.90
2023-12-19T17:52:42.091Z,6.80
2023-12-19T17:55:09.520Z,7.03
2023-12-19T17:57:36.367Z,6.47
2023-12-19T18:00:04.077Z,5.93
2023-12-19T18:02:32.965Z,4.85
2023-12-19T18:05:03.081Z,6.35
2023-12-19T18:07:30.317Z,5.35
2023-12-19T18:09:57.319Z,5.95
2023-12-19T18:12:24.307Z,6.55
2023-12-19T18:14:51.142Z,6.18
2023-12-19T18:17:17.943Z,4.35
2023-12-19T18:19:44.820Z,4.78
2023-12-19T18:22:11.944Z,4.85
2023-12-19T18:24:38.755Z,4.30
2023-12-19T18:27:05.838Z,4.70
2023-12-19T18:29:32.607Z,4.43
2023-12-19T18:31:59.406Z,4.60
2023-12-19T18:34:26.264Z,4.55
2023-12-19T18:36:53.659Z,3.72
2023-12-19T18:39:20.694Z,3.88
2023-12-19T18:41:47.549Z,3.78
2023-12-19T18:44:14.228Z,3.60
2023-12-19T18:46:41.700Z,4.30
2023-12-19T18:49:09.679Z,3.92
2023-12-19T18:51:39.157Z,4.05
2023-12-19T18:54:07.494Z,3.70
2023-12-19T18:56:34.619Z,3.65
2023-12-19T18:59:03.709Z,4.25
2023-12-19T19:01:30.956Z,3.58
2023-12-19T19:03:58.347Z,4.25
2023-12-19T19:06:27.092Z,4.15
2023-12-19T19:08:54.637Z,3.05
2023-12-19T19:11:21.472Z,4.30
2023-12-19T19:13:48.216Z,4.97
2023-12-19T19:16:15.431Z,5.57
2023-12-19T19:18:44.819Z,43.55
2023-12-19T19:21:14.296Z,9.20
2023-12-19T19:23:41.014Z,5.07
2023-12-19T19:26:07.822Z,6.28
2023-12-19T19:28:35.705Z,5.38
2023-12-19T19:31:03.106Z,4.28
2023-12-19T19:33:34.419Z,4.72
2023-12-19T19:36:01.611Z,5.05
2023-12-19T19:38:29.447Z,3.42
2023-12-19T19:40:59.389Z,4.57
2023-12-19T19:43:26.976Z,3.50
2023-12-19T19:45:54.810Z,4.82
2023-12-19T19:48:22.085Z,4.50
2023-12-19T19:50:49.450Z,2.80
2023-12-19T19:53:16.452Z,3.22
2023-12-19T19:55:43.910Z,3.10
2023-12-19T19:58:10.938Z,3.20
2023-12-19T20:00:38.296Z,3.30
2023-12-19T20:03:05.520Z,2.75
2023-12-19T20:05:32.412Z,2.20
2023-12-19T20:07:59.130Z,2.30
2023-12-19T20:10:26.092Z,2.55
2023-12-19T20:12:53.009Z,1.67
2023-12-19T20:15:20.062Z,1.90
2023-12-19T20:17:46.913Z,16.20
2023-12-19T20:20:13.723Z,2.67
2023-12-19T20:22:40.406Z,1.80
2023-12-19T20:25:07.386Z,3.40
2023-12-19T20:27:34.606Z,1.98
2023-12-19T20:30:01.326Z,1.80
2023-12-19T20:32:28.036Z,1.60
2023-12-19T20:34:54.725Z,2.80
2023-12-19T20:37:22.047Z,1.73
2023-12-19T20:39:48.776Z,25.88
2023-12-19T20:42:15.544Z,1.92
2023-12-19T20:44:42.900Z,1.92
2023-12-19T20:47:09.592Z,1.60
2023-12-19T20:49:37.124Z,2.10
2023-12-19T20:52:05.656Z,1.90
2023-12-19T20:54:33.063Z,2.20
2023-12-19T20:56:59.931Z,2.15
2023-12-19T20:59:26.814Z,1.48
2023-12-19T21:01:53.639Z,1.13
2023-12-19T21:04:20.508Z,1.73
2023-12-19T21:06:47.280Z,1.23
2023-12-19T21:09:14.074Z,1.17
2023-12-19T21:11:41.009Z,2.38
2023-12-19T21:14:08.377Z,3.97
2023-12-19T21:16:35.300Z,2.08
2023-12-19T21:19:02.096Z,2.60
2023-12-19T21:21:29.013Z,1.85
2023-12-19T21:23:55.918Z,1.65
2023-12-19T21:26:22.731Z,1.60
2023-12-19T21:28:49.427Z,3.63
2023-12-19T21:31:16.709Z,16.77
2023-12-19T21:33:45.176Z,4.20
2023-12-19T21:36:13.290Z,5.25
2023-12-19T21:38:40.019Z,3.28
2023-12-19T21:41:12.368Z,2.45
2023-12-19T21:43:39.177Z,2.33
2023-12-19T21:46:05.926Z,4.95
2023-12-19T21:48:32.681Z,6.32
2023-12-19T21:51:05.239Z,2.05
2023-12-19T21:53:34.015Z,1.52
2023-12-19T21:56:00.942Z,1.38
2023-12-19T21:58:27.647Z,2.03
2023-12-19T22:00:55.110Z,2.00
2023-12-19T22:03:21.934Z,1.83
2023-12-19T22:05:49.043Z,3.15
2023-12-19T22:08:15.739Z,1.52
2023-12-19T22:10:42.419Z,1.48
2023-12-19T22:13:09.268Z,1.70
2023-12-19T22:15:37.035Z,1.30
2023-12-19T22:18:04.013Z,1.52
2023-12-19T22:20:30.864Z,1.50
2023-12-19T22:22:57.512Z,1.60
2023-12-19T22:25:24.227Z,1.20
2023-12-19T22:27:51.215Z,1.42
2023-12-19T22:30:18.863Z,1.27
2023-12-19T22:32:45.648Z,1.35
2023-12-19T22:35:12.418Z,1.38
2023-12-19T22:37:39.078Z,1.88
2023-12-19T22:40:07.580Z,1.27
2023-12-19T22:42:34.477Z,1.67
2023-12-19T22:45:01.380Z,1.20
2023-12-19T22:47:28.069Z,1.33
2023-12-19T22:49:54.808Z,1.90
2023-12-19T22:52:21.491Z,1.42
2023-12-19T22:54:48.231Z,1.63
2023-12-19T22:57:14.927Z,2.05
2023-12-19T22:59:47.002Z,1.50
2023-12-19T23:02:13.808Z,1.52
2023-12-19T23:04:48.656Z,1.80
